sensor_id;sensor_type;location;lat;lon;timestamp;temperature;humidity
65598;SHT31;52267;51.984;20.956;2023-07-13T00:02:06;17.40;79.44
65598;SHT31;52267;51.984;20.956;2023-07-13T00:04:34;17.37;79.39
65598;SHT31;52267;51.984;20.956;2023-07-13T00:07:01;17.29;80.23
65598;SHT31;52267;51.984;20.956;2023-07-13T00:09:29;17.26;80.10
65598;SHT31;52267;51.984;20.956;2023-07-13T00:11:56;17.29;79.92
65598;SHT31;52267;51.984;20.956;2023-07-13T00:14:24;17.27;79.96
65598;SHT31;52267;51.984;20.956;2023-07-13T00:16:54;17.25;80.06
65598;SHT31;52267;51.984;20.956;2023-07-13T00:19:22;17.25;80.18
65598;SHT31;52267;51.984;20.956;2023-07-13T00:21:49;17.25;80.28
65598;SHT31;52267;51.984;20.956;2023-07-13T00:24:16;17.21;80.30
65598;SHT31;52267;51.984;20.956;2023-07-13T00:26:49;17.20;80.34
65598;SHT31;52267;51.984;20.956;2023-07-13T00:29:16;17.22;80.30
65598;SHT31;52267;51.984;20.956;2023-07-13T00:31:43;17.27;80.15
65598;SHT31;52267;51.984;20.956;2023-07-13T00:34:11;17.30;79.98
65598;SHT31;52267;51.984;20.956;2023-07-13T00:36:38;17.31;79.87
65598;SHT31;52267;51.984;20.956;2023-07-13T00:39:05;17.32;79.67
65598;SHT31;52267;51.984;20.956;2023-07-13T00:41:32;17.30;79.65
65598;SHT31;52267;51.984;20.956;2023-07-13T00:43:59;17.30;79.74
65598;SHT31;52267;51.984;20.956;2023-07-13T00:46:28;17.28;79.88
65598;SHT31;52267;51.984;20.956;2023-07-13T00:49:00;17.28;79.75
65598;SHT31;52267;51.984;20.956;2023-07-13T00:51:33;17.27;79.75
65598;SHT31;52267;51.984;20.956;2023-07-13T00:54:22;17.27;79.88
65598;SHT31;52267;51.984;20.956;2023-07-13T00:56:58;17.25;79.95
65598;SHT31;52267;51.984;20.956;2023-07-13T00:59:29;17.20;80.07
65598;SHT31;52267;51.984;20.956;2023-07-13T01:01:58;17.17;80.17
65598;SHT31;52267;51.984;20.956;2023-07-13T01:04:25;17.13;80.31
65598;SHT31;52267;51.984;20.956;2023-07-13T01:06:52;17.12;80.34
65598;SHT31;52267;51.984;20.956;2023-07-13T01:09:20;17.13;80.43
65598;SHT31;52267;51.984;20.956;2023-07-13T01:11:48;17.06;80.92
65598;SHT31;52267;51.984;20.956;2023-07-13T01:14:15;17.06;80.81
65598;SHT31;52267;51.984;20.956;2023-07-13T01:16:43;17.09;80.64
65598;SHT31;52267;51.984;20.956;2023-07-13T01:22:04;16.96;81.36
65598;SHT31;52267;51.984;20.956;2023-07-13T01:24:35;16.92;81.32
65598;SHT31;52267;51.984;20.956;2023-07-13T01:27:03;16.94;81.20
65598;SHT31;52267;51.984;20.956;2023-07-13T01:29:35;16.96;81.18
65598;SHT31;52267;51.984;20.956;2023-07-13T01:32:10;16.96;81.19
65598;SHT31;52267;51.984;20.956;2023-07-13T01:34:41;17.00;81.01
65598;SHT31;52267;51.984;20.956;2023-07-13T01:37:09;17.04;80.74
65598;SHT31;52267;51.984;20.956;2023-07-13T01:39:38;17.07;80.62
65598;SHT31;52267;51.984;20.956;2023-07-13T01:42:06;17.08;80.49
65598;SHT31;52267;51.984;20.956;2023-07-13T01:44:34;17.04;80.69
65598;SHT31;52267;51.984;20.956;2023-07-13T01:47:01;17.02;80.70
65598;SHT31;52267;51.984;20.956;2023-07-13T01:49:28;17.02;80.68
65598;SHT31;52267;51.984;20.956;2023-07-13T01:51:55;17.02;80.71
65598;SHT31;52267;51.984;20.956;2023-07-13T01:54:22;16.99;80.80
65598;SHT31;52267;51.984;20.956;2023-07-13T01:56:49;16.99;80.66
65598;SHT31;52267;51.984;20.956;2023-07-13T01:59:17;17.01;80.56
65598;SHT31;52267;51.984;20.956;2023-07-13T02:01:44;16.99;80.55
65598;SHT31;52267;51.984;20.956;2023-07-13T02:04:11;16.98;80.60
65598;SHT31;52267;51.984;20.956;2023-07-13T02:06:38;16.95;80.60
65598;SHT31;52267;51.984;20.956;2023-07-13T02:09:05;16.93;80.57
65598;SHT31;52267;51.984;20.956;2023-07-13T02:11:32;16.92;80.52
65598;SHT31;52267;51.984;20.956;2023-07-13T02:14:00;16.89;80.50
65598;SHT31;52267;51.984;20.956;2023-07-13T02:16:29;16.86;80.55
65598;SHT31;52267;51.984;20.956;2023-07-13T02:18:57;16.86;80.54
65598;SHT31;52267;51.984;20.956;2023-07-13T02:21:24;16.82;80.63
65598;SHT31;52267;51.984;20.956;2023-07-13T02:23:52;16.81;80.65
65598;SHT31;52267;51.984;20.956;2023-07-13T02:26:19;16.81;80.71
65598;SHT31;52267;51.984;20.956;2023-07-13T02:28:46;16.79;80.73
65598;SHT31;52267;51.984;20.956;2023-07-13T02:31:14;16.80;80.69
65598;SHT31;52267;51.984;20.956;2023-07-13T02:33:42;16.79;80.69
65598;SHT31;52267;51.984;20.956;2023-07-13T02:36:09;16.75;80.87
65598;SHT31;52267;51.984;20.956;2023-07-13T02:38:37;16.74;80.91
65598;SHT31;52267;51.984;20.956;2023-07-13T02:41:05;16.73;81.00
65598;SHT31;52267;51.984;20.956;2023-07-13T02:43:35;16.70;81.11
65598;SHT31;52267;51.984;20.956;2023-07-13T02:46:03;16.64;81.38
65598;SHT31;52267;51.984;20.956;2023-07-13T02:48:33;16.58;81.56
65598;SHT31;52267;51.984;20.956;2023-07-13T02:51:01;16.56;81.57
65598;SHT31;52267;51.984;20.956;2023-07-13T02:53:29;16.58;81.45
65598;SHT31;52267;51.984;20.956;2023-07-13T02:55:56;16.60;81.40
65598;SHT31;52267;51.984;20.956;2023-07-13T02:58:23;16.59;81.43
65598;SHT31;52267;51.984;20.956;2023-07-13T03:00:50;16.59;81.34
65598;SHT31;52267;51.984;20.956;2023-07-13T03:03:18;16.64;81.14
65598;SHT31;52267;51.984;20.956;2023-07-13T03:05:45;16.65;81.05
65598;SHT31;52267;51.984;20.956;2023-07-13T03:08:16;16.64;81.03
65598;SHT31;52267;51.984;20.956;2023-07-13T03:10:44;16.62;81.08
65598;SHT31;52267;51.984;20.956;2023-07-13T03:13:11;16.60;81.16
65598;SHT31;52267;51.984;20.956;2023-07-13T03:15:38;16.61;81.02
65598;SHT31;52267;51.984;20.956;2023-07-13T03:18:05;16.63;80.96
65598;SHT31;52267;51.984;20.956;2023-07-13T03:20:33;16.60;81.02
65598;SHT31;52267;51.984;20.956;2023-07-13T03:23:01;16.62;80.98
65598;SHT31;52267;51.984;20.956;2023-07-13T03:25:29;16.63;80.93
65598;SHT31;52267;51.984;20.956;2023-07-13T03:27:56;16.63;80.96
65598;SHT31;52267;51.984;20.956;2023-07-13T03:30:23;16.62;81.08
65598;SHT31;52267;51.984;20.956;2023-07-13T03:32:50;16.64;81.09
65598;SHT31;52267;51.984;20.956;2023-07-13T03:35:18;16.63;81.30
65598;SHT31;52267;51.984;20.956;2023-07-13T03:37:45;16.64;81.34
65598;SHT31;52267;51.984;20.956;2023-07-13T03:40:12;16.65;81.51
65598;SHT31;52267;51.984;20.956;2023-07-13T03:42:40;16.67;81.58
65598;SHT31;52267;51.984;20.956;2023-07-13T03:45:07;16.69;81.68
65598;SHT31;52267;51.984;20.956;2023-07-13T03:47:35;16.73;81.87
65598;SHT31;52267;51.984;20.956;2023-07-13T03:50:02;16.79;81.92
65598;SHT31;52267;51.984;20.956;2023-07-13T03:52:29;16.85;81.99
65598;SHT31;52267;51.984;20.956;2023-07-13T03:54:57;16.90;82.24
65598;SHT31;52267;51.984;20.956;2023-07-13T03:57:24;16.94;82.80
65598;SHT31;52267;51.984;20.956;2023-07-13T03:59:51;17.03;82.61
65598;SHT31;52267;51.984;20.956;2023-07-13T04:02:18;17.15;82.47
65598;SHT31;52267;51.984;20.956;2023-07-13T04:04:46;17.27;82.46
65598;SHT31;52267;51.984;20.956;2023-07-13T04:07:13;17.38;82.57
65598;SHT31;52267;51.984;20.956;2023-07-13T04:09:40;17.51;82.54
65598;SHT31;52267;51.984;20.956;2023-07-13T04:12:07;17.66;82.63
65598;SHT31;52267;51.984;20.956;2023-07-13T04:14:34;17.82;82.57
65598;SHT31;52267;51.984;20.956;2023-07-13T04:17:01;18.00;82.61
65598;SHT31;52267;51.984;20.956;2023-07-13T04:19:28;18.19;82.62
65598;SHT31;52267;51.984;20.956;2023-07-13T04:21:55;18.39;82.61
65598;SHT31;52267;51.984;20.956;2023-07-13T04:24:22;18.56;82.52
65598;SHT31;52267;51.984;20.956;2023-07-13T04:26:49;18.71;82.48
65598;SHT31;52267;51.984;20.956;2023-07-13T04:29:16;18.85;82.53
65598;SHT31;52267;51.984;20.956;2023-07-13T04:31:43;18.95;82.59
65598;SHT31;52267;51.984;20.956;2023-07-13T04:34:10;19.05;82.58
65598;SHT31;52267;51.984;20.956;2023-07-13T04:36:37;19.15;82.61
65598;SHT31;52267;51.984;20.956;2023-07-13T04:39:04;19.23;82.65
65598;SHT31;52267;51.984;20.956;2023-07-13T04:41:31;19.31;82.66
65598;SHT31;52267;51.984;20.956;2023-07-13T04:43:58;19.40;82.72
65598;SHT31;52267;51.984;20.956;2023-07-13T04:46:25;19.48;82.56
65598;SHT31;52267;51.984;20.956;2023-07-13T04:48:52;19.51;82.55
65598;SHT31;52267;51.984;20.956;2023-07-13T04:51:20;19.57;82.50
65598;SHT31;52267;51.984;20.956;2023-07-13T04:53:47;19.64;82.32
65598;SHT31;52267;51.984;20.956;2023-07-13T04:56:14;19.69;82.11
65598;SHT31;52267;51.984;20.956;2023-07-13T04:58:41;19.73;82.01
65598;SHT31;52267;51.984;20.956;2023-07-13T05:01:09;19.78;81.88
65598;SHT31;52267;51.984;20.956;2023-07-13T05:03:36;19.82;81.92
65598;SHT31;52267;51.984;20.956;2023-07-13T05:06:04;19.89;81.85
65598;SHT31;52267;51.984;20.956;2023-07-13T05:08:36;19.94;81.76
65598;SHT31;52267;51.984;20.956;2023-07-13T05:11:03;19.99;81.69
65598;SHT31;52267;51.984;20.956;2023-07-13T05:13:33;20.01;81.65
65598;SHT31;52267;51.984;20.956;2023-07-13T05:16:01;20.08;81.62
65598;SHT31;52267;51.984;20.956;2023-07-13T05:18:30;20.14;81.54
65598;SHT31;52267;51.984;20.956;2023-07-13T05:20:58;20.19;81.52
65598;SHT31;52267;51.984;20.956;2023-07-13T05:23:34;20.25;81.52
65598;SHT31;52267;51.984;20.956;2023-07-13T05:26:03;20.32;81.06
65598;SHT31;52267;51.984;20.956;2023-07-13T05:28:30;20.39;80.75
65598;SHT31;52267;51.984;20.956;2023-07-13T05:30:59;20.45;80.77
65598;SHT31;52267;51.984;20.956;2023-07-13T05:33:26;20.53;80.71
65598;SHT31;52267;51.984;20.956;2023-07-13T05:35:53;20.60;80.63
65598;SHT31;52267;51.984;20.956;2023-07-13T05:38:21;20.69;80.38
65598;SHT31;52267;51.984;20.956;2023-07-13T05:40:49;20.77;80.31
65598;SHT31;52267;51.984;20.956;2023-07-13T05:43:17;20.87;80.31
65598;SHT31;52267;51.984;20.956;2023-07-13T05:45:44;20.97;80.22
65598;SHT31;52267;51.984;20.956;2023-07-13T05:48:11;21.07;79.99
65598;SHT31;52267;51.984;20.956;2023-07-13T05:50:38;21.15;79.73
65598;SHT31;52267;51.984;20.956;2023-07-13T05:53:05;21.23;79.70
65598;SHT31;52267;51.984;20.956;2023-07-13T05:55:32;21.31;79.63
65598;SHT31;52267;51.984;20.956;2023-07-13T05:58:00;21.37;79.46
65598;SHT31;52267;51.984;20.956;2023-07-13T06:00:28;21.41;79.44
65598;SHT31;52267;51.984;20.956;2023-07-13T06:02:55;21.46;79.53
65598;SHT31;52267;51.984;20.956;2023-07-13T06:05:25;21.50;79.42
65598;SHT31;52267;51.984;20.956;2023-07-13T06:07:52;21.53;79.43
65598;SHT31;52267;51.984;20.956;2023-07-13T06:10:19;21.60;79.29
65598;SHT31;52267;51.984;20.956;2023-07-13T06:12:46;21.67;79.16
65598;SHT31;52267;51.984;20.956;2023-07-13T06:15:13;21.72;78.93
65598;SHT31;52267;51.984;20.956;2023-07-13T06:17:40;21.76;78.89
65598;SHT31;52267;51.984;20.956;2023-07-13T06:20:07;21.83;78.94
65598;SHT31;52267;51.984;20.956;2023-07-13T06:22:34;21.88;78.87
65598;SHT31;52267;51.984;20.956;2023-07-13T06:25:02;21.94;78.85
65598;SHT31;52267;51.984;20.956;2023-07-13T06:27:29;22.03;78.82
65598;SHT31;52267;51.984;20.956;2023-07-13T06:29:56;22.11;78.86
65598;SHT31;52267;51.984;20.956;2023-07-13T06:32:23;22.16;78.86
65598;SHT31;52267;51.984;20.956;2023-07-13T06:34:50;22.26;78.66
65598;SHT31;52267;51.984;20.956;2023-07-13T06:37:20;22.33;78.40
65598;SHT31;52267;51.984;20.956;2023-07-13T06:39:47;22.36;78.41
65598;SHT31;52267;51.984;20.956;2023-07-13T06:42:15;22.43;78.30
65598;SHT31;52267;51.984;20.956;2023-07-13T06:44:43;22.48;78.19
65598;SHT31;52267;51.984;20.956;2023-07-13T06:47:10;22.57;78.06
65598;SHT31;52267;51.984;20.956;2023-07-13T06:49:43;22.69;77.91
65598;SHT31;52267;51.984;20.956;2023-07-13T06:52:10;22.82;77.66
65598;SHT31;52267;51.984;20.956;2023-07-13T06:54:37;22.92;77.48
65598;SHT31;52267;51.984;20.956;2023-07-13T06:57:04;23.01;77.32
65598;SHT31;52267;51.984;20.956;2023-07-13T06:59:32;23.05;77.04
65598;SHT31;52267;51.984;20.956;2023-07-13T07:02:02;23.17;76.93
65598;SHT31;52267;51.984;20.956;2023-07-13T07:04:29;23.25;76.65
65598;SHT31;52267;51.984;20.956;2023-07-13T07:06:56;23.30;76.41
65598;SHT31;52267;51.984;20.956;2023-07-13T07:09:23;23.38;76.38
65598;SHT31;52267;51.984;20.956;2023-07-13T07:11:50;23.44;76.11
65598;SHT31;52267;51.984;20.956;2023-07-13T07:14:17;23.56;75.69
65598;SHT31;52267;51.984;20.956;2023-07-13T07:16:44;23.72;75.48
65598;SHT31;52267;51.984;20.956;2023-07-13T07:19:11;23.87;74.19
65598;SHT31;52267;51.984;20.956;2023-07-13T07:21:39;23.95;74.25
65598;SHT31;52267;51.984;20.956;2023-07-13T07:24:06;24.26;73.90
65598;SHT31;52267;51.984;20.956;2023-07-13T07:26:33;24.56;72.61
65598;SHT31;52267;51.984;20.956;2023-07-13T07:29:01;24.78;72.24
65598;SHT31;52267;51.984;20.956;2023-07-13T07:31:28;24.83;71.79
65598;SHT31;52267;51.984;20.956;2023-07-13T07:33:55;24.92;71.43
65598;SHT31;52267;51.984;20.956;2023-07-13T07:36:22;25.16;69.64
65598;SHT31;52267;51.984;20.956;2023-07-13T07:38:49;25.27;69.11
65598;SHT31;52267;51.984;20.956;2023-07-13T07:41:16;25.41;69.08
65598;SHT31;52267;51.984;20.956;2023-07-13T07:43:43;25.53;68.76
65598;SHT31;52267;51.984;20.956;2023-07-13T07:46:10;25.59;67.03
65598;SHT31;52267;51.984;20.956;2023-07-13T07:48:37;25.60;67.30
65598;SHT31;52267;51.984;20.956;2023-07-13T07:51:04;25.87;68.19
65598;SHT31;52267;51.984;20.956;2023-07-13T07:53:31;26.06;66.17
65598;SHT31;52267;51.984;20.956;2023-07-13T07:55:58;26.14;65.35
65598;SHT31;52267;51.984;20.956;2023-07-13T07:58:25;26.38;66.07
65598;SHT31;52267;51.984;20.956;2023-07-13T08:00:52;26.67;65.66
65598;SHT31;52267;51.984;20.956;2023-07-13T08:03:19;27.03;65.24
65598;SHT31;52267;51.984;20.956;2023-07-13T08:05:46;27.29;63.51
65598;SHT31;52267;51.984;20.956;2023-07-13T08:08:13;27.51;63.85
65598;SHT31;52267;51.984;20.956;2023-07-13T08:10:41;27.74;63.22
65598;SHT31;52267;51.984;20.956;2023-07-13T08:13:08;27.86;60.89
65598;SHT31;52267;51.984;20.956;2023-07-13T08:15:35;27.99;61.56
65598;SHT31;52267;51.984;20.956;2023-07-13T08:18:04;28.11;59.73
65598;SHT31;52267;51.984;20.956;2023-07-13T08:20:31;28.32;61.52
65598;SHT31;52267;51.984;20.956;2023-07-13T08:22:58;28.54;58.97
65598;SHT31;52267;51.984;20.956;2023-07-13T08:25:25;28.69;60.02
65598;SHT31;52267;51.984;20.956;2023-07-13T08:27:52;28.80;58.12
65598;SHT31;52267;51.984;20.956;2023-07-13T08:30:19;28.80;56.76
65598;SHT31;52267;51.984;20.956;2023-07-13T08:32:46;28.90;58.00
65598;SHT31;52267;51.984;20.956;2023-07-13T08:35:13;29.10;57.84
65598;SHT31;52267;51.984;20.956;2023-07-13T08:37:40;28.96;55.38
65598;SHT31;52267;51.984;20.956;2023-07-13T08:40:09;28.89;56.31
65598;SHT31;52267;51.984;20.956;2023-07-13T08:47:55;29.56;56.46
65598;SHT31;52267;51.984;20.956;2023-07-13T08:50:27;29.63;56.26
65598;SHT31;52267;51.984;20.956;2023-07-13T08:53:05;29.70;55.80
65598;SHT31;52267;51.984;20.956;2023-07-13T08:55:34;29.88;54.75
65598;SHT31;52267;51.984;20.956;2023-07-13T08:58:11;29.98;54.18
65598;SHT31;52267;51.984;20.956;2023-07-13T09:03:41;30.36;54.35
65598;SHT31;52267;51.984;20.956;2023-07-13T09:06:17;30.67;53.70
65598;SHT31;52267;51.984;20.956;2023-07-13T09:08:52;30.72;52.09
65598;SHT31;52267;51.984;20.956;2023-07-13T09:17:32;30.39;51.48
65598;SHT31;52267;51.984;20.956;2023-07-13T09:20:20;30.35;52.40
65598;SHT31;52267;51.984;20.956;2023-07-13T09:22:59;30.22;52.42
65598;SHT31;52267;51.984;20.956;2023-07-13T09:25:36;30.24;52.94
65598;SHT31;52267;51.984;20.956;2023-07-13T09:28:26;30.19;53.26
65598;SHT31;52267;51.984;20.956;2023-07-13T09:33:32;29.84;53.19
65598;SHT31;52267;51.984;20.956;2023-07-13T09:36:05;29.97;53.39
65598;SHT31;52267;51.984;20.956;2023-07-13T09:38:45;30.42;52.82
65598;SHT31;52267;51.984;20.956;2023-07-13T09:41:20;30.66;51.89
65598;SHT31;52267;51.984;20.956;2023-07-13T09:44:16;30.90;50.87
65598;SHT31;52267;51.984;20.956;2023-07-13T09:46:57;30.91;50.35
65598;SHT31;52267;51.984;20.956;2023-07-13T09:49:26;30.83;50.04
65598;SHT31;52267;51.984;20.956;2023-07-13T09:52:02;31.01;49.46
65598;SHT31;52267;51.984;20.956;2023-07-13T09:54:34;31.09;48.89
65598;SHT31;52267;51.984;20.956;2023-07-13T09:57:13;30.98;49.43
65598;SHT31;52267;51.984;20.956;2023-07-13T09:59:44;30.91;49.56
65598;SHT31;52267;51.984;20.956;2023-07-13T10:02:30;31.09;49.63
65598;SHT31;52267;51.984;20.956;2023-07-13T10:05:00;31.29;48.91
65598;SHT31;52267;51.984;20.956;2023-07-13T10:07:31;30.99;48.51
65598;SHT31;52267;51.984;20.956;2023-07-13T10:10:12;30.64;49.34
65598;SHT31;52267;51.984;20.956;2023-07-13T10:12:49;30.53;50.13
65598;SHT31;52267;51.984;20.956;2023-07-13T10:15:18;30.43;50.83
65598;SHT31;52267;51.984;20.956;2023-07-13T10:17:49;30.15;50.29
65598;SHT31;52267;51.984;20.956;2023-07-13T10:20:17;30.06;51.12
65598;SHT31;52267;51.984;20.956;2023-07-13T10:25:34;29.58;51.51
65598;SHT31;52267;51.984;20.956;2023-07-13T10:28:19;29.30;52.22
65598;SHT31;52267;51.984;20.956;2023-07-13T10:30:57;29.06;52.43
65598;SHT31;52267;51.984;20.956;2023-07-13T10:33:28;28.85;53.67
65598;SHT31;52267;51.984;20.956;2023-07-13T10:35:59;28.67;54.72
65598;SHT31;52267;51.984;20.956;2023-07-13T10:38:38;28.61;54.56
65598;SHT31;52267;51.984;20.956;2023-07-13T10:41:09;28.51;54.15
65598;SHT31;52267;51.984;20.956;2023-07-13T10:43:43;28.39;53.94
65598;SHT31;52267;51.984;20.956;2023-07-13T10:46:14;28.43;54.07
65598;SHT31;52267;51.984;20.956;2023-07-13T10:48:47;28.75;53.45
65598;SHT31;52267;51.984;20.956;2023-07-13T10:51:19;29.25;53.17
65598;SHT31;52267;51.984;20.956;2023-07-13T10:53:48;29.58;52.69
65598;SHT31;52267;51.984;20.956;2023-07-13T10:56:53;29.63;52.71
65598;SHT31;52267;51.984;20.956;2023-07-13T10:59:36;29.49;53.00
65598;SHT31;52267;51.984;20.956;2023-07-13T11:04:40;29.12;53.91
65598;SHT31;52267;51.984;20.956;2023-07-13T11:07:19;28.86;54.41
65598;SHT31;52267;51.984;20.956;2023-07-13T11:09:59;28.45;54.58
65598;SHT31;52267;51.984;20.956;2023-07-13T11:15:13;27.14;54.76
65598;SHT31;52267;51.984;20.956;2023-07-13T11:17:48;26.76;55.08
65598;SHT31;52267;51.984;20.956;2023-07-13T11:20:20;26.23;56.06
65598;SHT31;52267;51.984;20.956;2023-07-13T11:25:46;25.35;58.00
65598;SHT31;52267;51.984;20.956;2023-07-13T11:28:16;25.19;58.52
65598;SHT31;52267;51.984;20.956;2023-07-13T11:31:35;24.94;58.97
65598;SHT31;52267;51.984;20.956;2023-07-13T11:36:13;24.32;60.13
65598;SHT31;52267;51.984;20.956;2023-07-13T11:38:44;24.07;60.73
65598;SHT31;52267;51.984;20.956;2023-07-13T11:41:29;23.92;61.04
65598;SHT31;52267;51.984;20.956;2023-07-13T11:44:06;23.81;61.17
65598;SHT31;52267;51.984;20.956;2023-07-13T11:46:48;23.77;61.57
65598;SHT31;52267;51.984;20.956;2023-07-13T11:49:19;23.69;61.81
65598;SHT31;52267;51.984;20.956;2023-07-13T11:51:49;23.60;62.15
65598;SHT31;52267;51.984;20.956;2023-07-13T11:54:29;23.50;62.21
65598;SHT31;52267;51.984;20.956;2023-07-13T11:59:53;23.26;63.01
65598;SHT31;52267;51.984;20.956;2023-07-13T12:02:32;23.15;63.59
65598;SHT31;52267;51.984;20.956;2023-07-13T12:05:03;23.00;64.16
65598;SHT31;52267;51.984;20.956;2023-07-13T12:07:32;22.92;63.83
65598;SHT31;52267;51.984;20.956;2023-07-13T12:12:52;22.66;64.55
65598;SHT31;52267;51.984;20.956;2023-07-13T12:15:48;22.58;65.54
65598;SHT31;52267;51.984;20.956;2023-07-13T12:18:19;22.38;67.01
65598;SHT31;52267;51.984;20.956;2023-07-13T12:20:50;22.34;65.91
65598;SHT31;52267;51.984;20.956;2023-07-13T12:23:22;22.31;66.01
65598;SHT31;52267;51.984;20.956;2023-07-13T12:25:57;22.26;66.56
65598;SHT31;52267;51.984;20.956;2023-07-13T12:28:31;22.23;66.47
65598;SHT31;52267;51.984;20.956;2023-07-13T12:31:30;22.14;67.22
65598;SHT31;52267;51.984;20.956;2023-07-13T12:34:14;22.05;67.65
65598;SHT31;52267;51.984;20.956;2023-07-13T12:44:56;21.88;71.84
65598;SHT31;52267;51.984;20.956;2023-07-13T12:47:52;21.85;70.69
65598;SHT31;52267;51.984;20.956;2023-07-13T12:51:08;21.83;71.25
65598;SHT31;52267;51.984;20.956;2023-07-13T12:53:42;21.77;72.69
65598;SHT31;52267;51.984;20.956;2023-07-13T12:56:23;21.72;71.37
65598;SHT31;52267;51.984;20.956;2023-07-13T12:58:57;21.64;72.78
65598;SHT31;52267;51.984;20.956;2023-07-13T13:01:29;21.57;72.85
65598;SHT31;52267;51.984;20.956;2023-07-13T13:04:03;21.57;72.69
65598;SHT31;52267;51.984;20.956;2023-07-13T13:06:37;21.58;73.19
65598;SHT31;52267;51.984;20.956;2023-07-13T13:09:05;21.61;73.19
65598;SHT31;52267;51.984;20.956;2023-07-13T13:11:40;21.65;73.32
65598;SHT31;52267;51.984;20.956;2023-07-13T13:14:08;21.68;73.42
65598;SHT31;52267;51.984;20.956;2023-07-13T13:16:37;21.70;73.84
65598;SHT31;52267;51.984;20.956;2023-07-13T13:21:53;21.75;73.74
65598;SHT31;52267;51.984;20.956;2023-07-13T13:24:24;21.75;74.15
65598;SHT31;52267;51.984;20.956;2023-07-13T13:26:54;21.67;74.80
65598;SHT31;52267;51.984;20.956;2023-07-13T13:29:23;21.63;74.95
65598;SHT31;52267;51.984;20.956;2023-07-13T13:31:52;21.58;75.18
65598;SHT31;52267;51.984;20.956;2023-07-13T13:34:21;21.58;75.03
65598;SHT31;52267;51.984;20.956;2023-07-13T13:36:53;21.61;75.43
65598;SHT31;52267;51.984;20.956;2023-07-13T13:39:22;21.57;75.87
65598;SHT31;52267;51.984;20.956;2023-07-13T13:42:04;21.59;76.38
65598;SHT31;52267;51.984;20.956;2023-07-13T13:44:31;21.57;76.44
65598;SHT31;52267;51.984;20.956;2023-07-13T13:46:59;21.57;76.66
65598;SHT31;52267;51.984;20.956;2023-07-13T13:49:26;21.52;77.10
65598;SHT31;52267;51.984;20.956;2023-07-13T13:51:54;21.56;76.77
65598;SHT31;52267;51.984;20.956;2023-07-13T13:54:22;21.56;77.34
65598;SHT31;52267;51.984;20.956;2023-07-13T13:56:51;21.61;76.59
65598;SHT31;52267;51.984;20.956;2023-07-13T13:59:19;21.61;76.50
65598;SHT31;52267;51.984;20.956;2023-07-13T14:01:47;21.57;76.81
65598;SHT31;52267;51.984;20.956;2023-07-13T14:04:16;21.57;76.66
65598;SHT31;52267;51.984;20.956;2023-07-13T14:06:47;21.59;76.87
65598;SHT31;52267;51.984;20.956;2023-07-13T14:09:15;21.59;76.67
65598;SHT31;52267;51.984;20.956;2023-07-13T14:11:45;21.57;76.93
65598;SHT31;52267;51.984;20.956;2023-07-13T14:14:18;21.55;77.03
65598;SHT31;52267;51.984;20.956;2023-07-13T14:16:49;21.56;77.22
65598;SHT31;52267;51.984;20.956;2023-07-13T14:19:20;21.59;77.02
65598;SHT31;52267;51.984;20.956;2023-07-13T14:21:47;21.59;76.83
65598;SHT31;52267;51.984;20.956;2023-07-13T14:24:15;21.61;76.73
65598;SHT31;52267;51.984;20.956;2023-07-13T14:26:42;21.62;76.85
65598;SHT31;52267;51.984;20.956;2023-07-13T14:29:15;21.60;77.06
65598;SHT31;52267;51.984;20.956;2023-07-13T14:31:44;21.60;76.91
65598;SHT31;52267;51.984;20.956;2023-07-13T14:34:13;21.60;76.94
65598;SHT31;52267;51.984;20.956;2023-07-13T14:36:41;21.63;76.94
65598;SHT31;52267;51.984;20.956;2023-07-13T14:39:15;21.61;77.36
65598;SHT31;52267;51.984;20.956;2023-07-13T14:41:45;21.58;78.05
65598;SHT31;52267;51.984;20.956;2023-07-13T14:44:20;21.47;78.39
65598;SHT31;52267;51.984;20.956;2023-07-13T14:46:52;21.44;77.79
65598;SHT31;52267;51.984;20.956;2023-07-13T14:49:28;21.40;78.40
65598;SHT31;52267;51.984;20.956;2023-07-13T14:52:02;21.33;79.20
65598;SHT31;52267;51.984;20.956;2023-07-13T14:54:40;21.24;79.30
65598;SHT31;52267;51.984;20.956;2023-07-13T14:57:14;21.29;78.34
65598;SHT31;52267;51.984;20.956;2023-07-13T14:59:45;21.28;79.28
65598;SHT31;52267;51.984;20.956;2023-07-13T15:02:17;21.27;78.72
65598;SHT31;52267;51.984;20.956;2023-07-13T15:04:53;21.32;78.57
65598;SHT31;52267;51.984;20.956;2023-07-13T15:07:21;21.34;78.19
65598;SHT31;52267;51.984;20.956;2023-07-13T15:09:49;21.39;78.13
65598;SHT31;52267;51.984;20.956;2023-07-13T15:12:18;21.36;78.45
65598;SHT31;52267;51.984;20.956;2023-07-13T15:14:46;21.33;78.19
65598;SHT31;52267;51.984;20.956;2023-07-13T15:17:35;21.34;78.03
65598;SHT31;52267;51.984;20.956;2023-07-13T15:20:15;21.37;78.02
65598;SHT31;52267;51.984;20.956;2023-07-13T15:22:51;21.36;78.14
65598;SHT31;52267;51.984;20.956;2023-07-13T15:25:20;21.33;78.19
65598;SHT31;52267;51.984;20.956;2023-07-13T15:27:54;21.27;78.70
65598;SHT31;52267;51.984;20.956;2023-07-13T15:30:27;21.16;78.86
65598;SHT31;52267;51.984;20.956;2023-07-13T15:32:58;21.08;78.81
65598;SHT31;52267;51.984;20.956;2023-07-13T15:35:50;21.05;79.38
65598;SHT31;52267;51.984;20.956;2023-07-13T15:38:24;20.96;79.20
65598;SHT31;52267;51.984;20.956;2023-07-13T15:40:58;20.93;78.97
65598;SHT31;52267;51.984;20.956;2023-07-13T15:43:25;20.95;78.72
65598;SHT31;52267;51.984;20.956;2023-07-13T15:45:53;20.97;78.68
65598;SHT31;52267;51.984;20.956;2023-07-13T15:48:21;21.02;78.64
65598;SHT31;52267;51.984;20.956;2023-07-13T15:50:51;21.05;78.59
65598;SHT31;52267;51.984;20.956;2023-07-13T15:53:24;21.09;78.52
65598;SHT31;52267;51.984;20.956;2023-07-13T15:55:55;21.12;78.56
65598;SHT31;52267;51.984;20.956;2023-07-13T15:58:24;21.13;78.58
65598;SHT31;52267;51.984;20.956;2023-07-13T16:00:52;21.14;78.68
65598;SHT31;52267;51.984;20.956;2023-07-13T16:03:20;21.08;78.78
65598;SHT31;52267;51.984;20.956;2023-07-13T16:05:48;21.05;78.86
65598;SHT31;52267;51.984;20.956;2023-07-13T16:08:34;21.02;78.75
65598;SHT31;52267;51.984;20.956;2023-07-13T16:11:01;20.87;79.51
65598;SHT31;52267;51.984;20.956;2023-07-13T16:13:29;20.84;79.25
65598;SHT31;52267;51.984;20.956;2023-07-13T16:15:56;20.82;79.50
65598;SHT31;52267;51.984;20.956;2023-07-13T16:18:23;20.79;79.06
65598;SHT31;52267;51.984;20.956;2023-07-13T16:20:50;20.76;79.20
65598;SHT31;52267;51.984;20.956;2023-07-13T16:23:20;20.74;79.14
65598;SHT31;52267;51.984;20.956;2023-07-13T16:25:48;20.68;79.26